sensor_id;sensor_type;location;lat;lon;timestamp;P1;durP1;ratioP1;P2;durP2;ratioP2
16766;SDS011;8501;49.926;8.404;2024-03-06T00:02:06;9.60;;;5.10;;
16766;SDS011;8501;49.926;8.404;2024-03-06T00:04:32;7.00;;;4.83;;
16766;SDS011;8501;49.926;8.404;2024-03-06T00:06:58;6.20;;;4.37;;
16766;SDS011;8501;49.926;8.404;2024-03-06T00:09:24;7.70;;;4.70;;
16766;SDS011;8501;49.926;8.404;2024-03-06T00:11:53;7.63;;;5.20;;
16766;SDS011;8501;49.926;8.404;2024-03-06T00:14:20;6.73;;;4.60;;
16766;SDS011;8501;49.926;8.404;2024-03-06T00:16:49;14.63;;;8.67;;
16766;SDS011;8501;49.926;8.404;2024-03-06T00:19:16;13.73;;;7.83;;
16766;SDS011;8501;49.926;8.404;2024-03-06T00:21:42;11.30;;;7.40;;
16766;SDS011;8501;49.926;8.404;2024-03-06T00:24:07;13.50;;;8.70;;
16766;SDS011;8501;49.926;8.404;2024-03-06T00:26:33;13.10;;;7.60;;
16766;SDS011;8501;49.926;8.404;2024-03-06T00:28:59;10.37;;;6.70;;
16766;SDS011;8501;49.926;8.404;2024-03-06T00:31:24;9.60;;;6.10;;
16766;SDS011;8501;49.926;8.404;2024-03-06T00:33:50;7.00;;;4.63;;
16766;SDS011;8501;49.926;8.404;2024-03-06T00:36:15;8.23;;;5.47;;
16766;SDS011;8501;49.926;8.404;2024-03-06T00:38:41;6.67;;;4.87;;
16766;SDS011;8501;49.926;8.404;2024-03-06T00:41:06;6.60;;;4.80;;
16766;SDS011;8501;49.926;8.404;2024-03-06T00:43:32;8.27;;;5.40;;
16766;SDS011;8501;49.926;8.404;2024-03-06T00:45:57;8.57;;;4.97;;
16766;SDS011;8501;49.926;8.404;2024-03-06T00:48:24;7.93;;;5.03;;
16766;SDS011;8501;49.926;8.404;2024-03-06T00:50:50;8.03;;;5.20;;
16766;SDS011;8501;49.926;8.404;2024-03-06T00:53:15;7.17;;;4.57;;
16766;SDS011;8501;49.926;8.404;2024-03-06T00:55:41;6.80;;;4.50;;
16766;SDS011;8501;49.926;8.404;2024-03-06T00:58:06;6.00;;;4.50;;
16766;SDS011;8501;49.926;8.404;2024-03-06T01:00:32;7.80;;;4.73;;
16766;SDS011;8501;49.926;8.404;2024-03-06T01:02:58;6.80;;;4.40;;
16766;SDS011;8501;49.926;8.404;2024-03-06T01:05:24;5.27;;;4.57;;
16766;SDS011;8501;49.926;8.404;2024-03-06T01:07:49;7.10;;;4.77;;
16766;SDS011;8501;49.926;8.404;2024-03-06T01:10:15;8.60;;;4.90;;
16766;SDS011;8501;49.926;8.404;2024-03-06T01:12:40;8.17;;;5.30;;
16766;SDS011;8501;49.926;8.404;2024-03-06T01:15:09;7.97;;;5.33;;
16766;SDS011;8501;49.926;8.404;2024-03-06T01:17:34;8.00;;;5.27;;
16766;SDS011;8501;49.926;8.404;2024-03-06T01:20:00;6.87;;;5.07;;
16766;SDS011;8501;49.926;8.404;2024-03-06T01:22:26;7.57;;;4.83;;
16766;SDS011;8501;49.926;8.404;2024-03-06T01:24:51;6.67;;;4.50;;
16766;SDS011;8501;49.926;8.404;2024-03-06T01:27:17;15.70;;;7.20;;
16766;SDS011;8501;49.926;8.404;2024-03-06T01:29:42;12.17;;;6.63;;
16766;SDS011;8501;49.926;8.404;2024-03-06T01:32:08;9.10;;;6.17;;
16766;SDS011;8501;49.926;8.404;2024-03-06T01:34:35;9.73;;;5.87;;
16766;SDS011;8501;49.926;8.404;2024-03-06T01:37:00;6.20;;;4.80;;
16766;SDS011;8501;49.926;8.404;2024-03-06T01:39:26;8.63;;;5.00;;
16766;SDS011;8501;49.926;8.404;2024-03-06T01:41:51;5.80;;;4.80;;
16766;SDS011;8501;49.926;8.404;2024-03-06T01:44:17;7.80;;;4.93;;
16766;SDS011;8501;49.926;8.404;2024-03-06T01:46:44;6.27;;;5.13;;
16766;SDS011;8501;49.926;8.404;2024-03-06T01:49:10;6.73;;;5.13;;
16766;SDS011;8501;49.926;8.404;2024-03-06T01:51:38;7.10;;;4.80;;
16766;SDS011;8501;49.926;8.404;2024-03-06T01:54:05;6.73;;;4.57;;
16766;SDS011;8501;49.926;8.404;2024-03-06T01:56:31;5.90;;;4.50;;
16766;SDS011;8501;49.926;8.404;2024-03-06T01:59:00;6.50;;;4.90;;
16766;SDS011;8501;49.926;8.404;2024-03-06T02:01:28;6.17;;;4.60;;
16766;SDS011;8501;49.926;8.404;2024-03-06T02:03:54;7.10;;;4.60;;
16766;SDS011;8501;49.926;8.404;2024-03-06T02:06:21;6.70;;;4.53;;
16766;SDS011;8501;49.926;8.404;2024-03-06T02:08:47;9.33;;;6.23;;
16766;SDS011;8501;49.926;8.404;2024-03-06T02:11:12;14.03;;;8.37;;
16766;SDS011;8501;49.926;8.404;2024-03-06T02:13:39;11.80;;;7.60;;
16766;SDS011;8501;49.926;8.404;2024-03-06T02:16:04;11.47;;;7.20;;
16766;SDS011;8501;49.926;8.404;2024-03-06T02:18:30;12.63;;;7.53;;
16766;SDS011;8501;49.926;8.404;2024-03-06T02:20:56;9.30;;;6.50;;
16766;SDS011;8501;49.926;8.404;2024-03-06T02:23:22;11.33;;;7.33;;
16766;SDS011;8501;49.926;8.404;2024-03-06T02:25:47;12.93;;;7.73;;
16766;SDS011;8501;49.926;8.404;2024-03-06T02:28:13;15.03;;;8.63;;
16766;SDS011;8501;49.926;8.404;2024-03-06T02:30:39;15.40;;;9.00;;
16766;SDS011;8501;49.926;8.404;2024-03-06T02:33:05;13.07;;;8.03;;
16766;SDS011;8501;49.926;8.404;2024-03-06T02:35:34;10.33;;;6.63;;
16766;SDS011;8501;49.926;8.404;2024-03-06T02:38:04;10.10;;;5.80;;
16766;SDS011;8501;49.926;8.404;2024-03-06T02:40:30;8.17;;;4.87;;
16766;SDS011;8501;49.926;8.404;2024-03-06T02:42:56;7.60;;;4.97;;
16766;SDS011;8501;49.926;8.404;2024-03-06T02:45:22;7.53;;;4.93;;
16766;SDS011;8501;49.926;8.404;2024-03-06T02:47:47;10.07;;;5.40;;
16766;SDS011;8501;49.926;8.404;2024-03-06T02:50:13;7.83;;;5.50;;
16766;SDS011;8501;49.926;8.404;2024-03-06T02:52:39;11.70;;;6.47;;
16766;SDS011;8501;49.926;8.404;2024-03-06T02:55:05;9.10;;;6.10;;
16766;SDS011;8501;49.926;8.404;2024-03-06T02:57:31;8.53;;;5.90;;
16766;SDS011;8501;49.926;8.404;2024-03-06T02:59:57;8.60;;;5.83;;
16766;SDS011;8501;49.926;8.404;2024-03-06T03:02:23;9.43;;;6.83;;
16766;SDS011;8501;49.926;8.404;2024-03-06T03:04:48;10.83;;;7.20;;
16766;SDS011;8501;49.926;8.404;2024-03-06T03:07:14;10.13;;;7.10;;
16766;SDS011;8501;49.926;8.404;2024-03-06T03:09:40;11.80;;;7.40;;
16766;SDS011;8501;49.926;8.404;2024-03-06T03:12:06;11.27;;;7.50;;
16766;SDS011;8501;49.926;8.404;2024-03-06T03:14:31;11.10;;;7.30;;
16766;SDS011;8501;49.926;8.404;2024-03-06T03:16:58;10.83;;;6.90;;
16766;SDS011;8501;49.926;8.404;2024-03-06T03:19:25;10.87;;;7.00;;
16766;SDS011;8501;49.926;8.404;2024-03-06T03:21:50;10.03;;;6.93;;
16766;SDS011;8501;49.926;8.404;2024-03-06T03:24:16;10.77;;;7.90;;
16766;SDS011;8501;49.926;8.404;2024-03-06T03:26:41;10.47;;;7.53;;
16766;SDS011;8501;49.926;8.404;2024-03-06T03:29:07;11.73;;;7.60;;
16766;SDS011;8501;49.926;8.404;2024-03-06T03:31:32;10.00;;;7.00;;
16766;SDS011;8501;49.926;8.404;2024-03-06T03:33:58;9.90;;;6.90;;
16766;SDS011;8501;49.926;8.404;2024-03-06T03:36:23;11.23;;;7.03;;
16766;SDS011;8501;49.926;8.404;2024-03-06T03:38:49;13.50;;;7.53;;
16766;SDS011;8501;49.926;8.404;2024-03-06T03:41:15;13.97;;;8.30;;
16766;SDS011;8501;49.926;8.404;2024-03-06T03:43:44;14.80;;;8.30;;
16766;SDS011;8501;49.926;8.404;2024-03-06T03:46:10;14.07;;;8.57;;
16766;SDS011;8501;49.926;8.404;2024-03-06T03:48:36;11.80;;;7.90;;
16766;SDS011;8501;49.926;8.404;2024-03-06T03:51:02;13.40;;;8.30;;
16766;SDS011;8501;49.926;8.404;2024-03-06T03:53:31;12.20;;;7.67;;
16766;SDS011;8501;49.926;8.404;2024-03-06T03:55:58;11.30;;;7.43;;
16766;SDS011;8501;49.926;8.404;2024-03-06T03:58:24;12.10;;;7.47;;
16766;SDS011;8501;49.926;8.404;2024-03-06T04:00:49;9.87;;;7.00;;
16766;SDS011;8501;49.926;8.404;2024-03-06T04:03:18;12.50;;;7.83;;
16766;SDS011;8501;49.926;8.404;2024-03-06T04:05:44;12.13;;;7.53;;
16766;SDS011;8501;49.926;8.404;2024-03-06T04:08:11;11.00;;;7.03;;
16766;SDS011;8501;49.926;8.404;2024-03-06T04:10:37;11.63;;;6.90;;
16766;SDS011;8501;49.926;8.404;2024-03-06T04:13:02;8.73;;;6.50;;
16766;SDS011;8501;49.926;8.404;2024-03-06T04:15:28;10.13;;;6.43;;
16766;SDS011;8501;49.926;8.404;2024-03-06T04:17:54;9.70;;;6.07;;
16766;SDS011;8501;49.926;8.404;2024-03-06T04:20:19;11.33;;;6.57;;
16766;SDS011;8501;49.926;8.404;2024-03-06T04:22:45;9.77;;;6.10;;
16766;SDS011;8501;49.926;8.404;2024-03-06T04:25:12;11.13;;;6.77;;
16766;SDS011;8501;49.926;8.404;2024-03-06T04:27:38;11.30;;;6.60;;
16766;SDS011;8501;49.926;8.404;2024-03-06T04:30:04;9.23;;;6.07;;
16766;SDS011;8501;49.926;8.404;2024-03-06T04:32:30;9.50;;;6.43;;
16766;SDS011;8501;49.926;8.404;2024-03-06T04:34:55;8.70;;;6.73;;
16766;SDS011;8501;49.926;8.404;2024-03-06T04:37:21;9.40;;;6.20;;
16766;SDS011;8501;49.926;8.404;2024-03-06T04:39:47;10.23;;;6.00;;
16766;SDS011;8501;49.926;8.404;2024-03-06T04:42:14;10.20;;;6.63;;
16766;SDS011;8501;49.926;8.404;2024-03-06T04:44:39;11.70;;;6.93;;
16766;SDS011;8501;49.926;8.404;2024-03-06T04:47:05;10.00;;;7.03;;
16766;SDS011;8501;49.926;8.404;2024-03-06T04:49:33;11.23;;;7.33;;
16766;SDS011;8501;49.926;8.404;2024-03-06T04:51:59;10.53;;;7.23;;
16766;SDS011;8501;49.926;8.404;2024-03-06T04:54:25;13.20;;;7.87;;
16766;SDS011;8501;49.926;8.404;2024-03-06T04:56:51;12.50;;;7.40;;
16766;SDS011;8501;49.926;8.404;2024-03-06T04:59:16;12.53;;;7.80;;
16766;SDS011;8501;49.926;8.404;2024-03-06T05:01:42;12.53;;;7.87;;
16766;SDS011;8501;49.926;8.404;2024-03-06T05:04:08;10.80;;;6.97;;
16766;SDS011;8501;49.926;8.404;2024-03-06T05:06:34;9.33;;;6.30;;
16766;SDS011;8501;49.926;8.404;2024-03-06T05:09:00;9.23;;;6.80;;
16766;SDS011;8501;49.926;8.404;2024-03-06T05:11:26;9.33;;;7.07;;
16766;SDS011;8501;49.926;8.404;2024-03-06T05:13:52;10.40;;;7.00;;
16766;SDS011;8501;49.926;8.404;2024-03-06T05:16:17;11.83;;;7.80;;
16766;SDS011;8501;49.926;8.404;2024-03-06T05:18:43;12.20;;;7.40;;
16766;SDS011;8501;49.926;8.404;2024-03-06T05:21:08;11.77;;;7.07;;
16766;SDS011;8501;49.926;8.404;2024-03-06T05:23:34;11.17;;;7.50;;
16766;SDS011;8501;49.926;8.404;2024-03-06T05:25:59;14.17;;;8.20;;
16766;SDS011;8501;49.926;8.404;2024-03-06T05:28:25;10.37;;;7.00;;
16766;SDS011;8501;49.926;8.404;2024-03-06T05:30:50;11.47;;;7.37;;
16766;SDS011;8501;49.926;8.404;2024-03-06T05:33:16;11.20;;;7.00;;
16766;SDS011;8501;49.926;8.404;2024-03-06T05:35:41;10.33;;;6.93;;
16766;SDS011;8501;49.926;8.404;2024-03-06T05:38:07;11.57;;;7.77;;
16766;SDS011;8501;49.926;8.404;2024-03-06T05:40:33;16.57;;;9.60;;
16766;SDS011;8501;49.926;8.404;2024-03-06T05:43:02;15.37;;;9.33;;
16766;SDS011;8501;49.926;8.404;2024-03-06T05:45:28;16.83;;;8.90;;
16766;SDS011;8501;49.926;8.404;2024-03-06T05:47:54;15.77;;;9.30;;
16766;SDS011;8501;49.926;8.404;2024-03-06T05:50:19;14.40;;;8.67;;
16766;SDS011;8501;49.926;8.404;2024-03-06T05:52:45;12.80;;;8.50;;
16766;SDS011;8501;49.926;8.404;2024-03-06T05:55:10;11.23;;;7.63;;
16766;SDS011;8501;49.926;8.404;2024-03-06T05:57:36;13.50;;;8.07;;
16766;SDS011;8501;49.926;8.404;2024-03-06T06:00:01;14.63;;;8.47;;
16766;SDS011;8501;49.926;8.404;2024-03-06T06:02:29;14.03;;;8.07;;
16766;SDS011;8501;49.926;8.404;2024-03-06T06:04:55;15.50;;;8.30;;
16766;SDS011;8501;49.926;8.404;2024-03-06T06:07:20;12.93;;;8.13;;
16766;SDS011;8501;49.926;8.404;2024-03-06T06:09:46;15.97;;;9.70;;
16766;SDS011;8501;49.926;8.404;2024-03-06T06:12:11;17.53;;;10.17;;
16766;SDS011;8501;49.926;8.404;2024-03-06T06:14:37;14.70;;;9.80;;
16766;SDS011;8501;49.926;8.404;2024-03-06T06:17:02;14.13;;;9.40;;
16766;SDS011;8501;49.926;8.404;2024-03-06T06:19:28;16.67;;;9.53;;
16766;SDS011;8501;49.926;8.404;2024-03-06T06:21:54;17.00;;;10.30;;
16766;SDS011;8501;49.926;8.404;2024-03-06T06:24:19;18.80;;;11.23;;
16766;SDS011;8501;49.926;8.404;2024-03-06T06:26:45;22.07;;;12.20;;
16766;SDS011;8501;49.926;8.404;2024-03-06T06:29:10;16.43;;;12.20;;
16766;SDS011;8501;49.926;8.404;2024-03-06T06:31:36;18.67;;;12.20;;
16766;SDS011;8501;49.926;8.404;2024-03-06T06:34:01;21.90;;;11.80;;
16766;SDS011;8501;49.926;8.404;2024-03-06T06:36:27;24.97;;;12.67;;
16766;SDS011;8501;49.926;8.404;2024-03-06T06:38:53;17.50;;;11.30;;
16766;SDS011;8501;49.926;8.404;2024-03-06T06:41:19;18.97;;;10.93;;
16766;SDS011;8501;49.926;8.404;2024-03-06T06:43:44;19.37;;;10.07;;
16766;SDS011;8501;49.926;8.404;2024-03-06T06:46:10;16.67;;;9.13;;
16766;SDS011;8501;49.926;8.404;2024-03-06T06:48:36;13.40;;;9.03;;
16766;SDS011;8501;49.926;8.404;2024-03-06T06:51:02;13.77;;;9.20;;
16766;SDS011;8501;49.926;8.404;2024-03-06T06:53:30;13.00;;;8.83;;
16766;SDS011;8501;49.926;8.404;2024-03-06T06:55:57;12.60;;;8.20;;
16766;SDS011;8501;49.926;8.404;2024-03-06T06:58:23;12.57;;;8.47;;
16766;SDS011;8501;49.926;8.404;2024-03-06T07:00:48;13.57;;;9.03;;
16766;SDS011;8501;49.926;8.404;2024-03-06T07:03:14;14.73;;;9.87;;
16766;SDS011;8501;49.926;8.404;2024-03-06T07:05:39;17.70;;;10.70;;
16766;SDS011;8501;49.926;8.404;2024-03-06T07:08:07;17.93;;;11.17;;
16766;SDS011;8501;49.926;8.404;2024-03-06T07:10:33;16.33;;;10.53;;
16766;SDS011;8501;49.926;8.404;2024-03-06T07:13:00;22.80;;;13.37;;
16766;SDS011;8501;49.926;8.404;2024-03-06T07:15:26;21.90;;;13.60;;
16766;SDS011;8501;49.926;8.404;2024-03-06T07:17:52;19.43;;;12.00;;
16766;SDS011;8501;49.926;8.404;2024-03-06T07:20:17;18.27;;;11.57;;
16766;SDS011;8501;49.926;8.404;2024-03-06T07:22:43;16.03;;;10.13;;
16766;SDS011;8501;49.926;8.404;2024-03-06T07:25:09;15.97;;;9.90;;
16766;SDS011;8501;49.926;8.404;2024-03-06T07:27:34;16.47;;;10.27;;
16766;SDS011;8501;49.926;8.404;2024-03-06T07:30:00;14.43;;;9.37;;
16766;SDS011;8501;49.926;8.404;2024-03-06T07:32:26;14.33;;;9.73;;
16766;SDS011;8501;49.926;8.404;2024-03-06T07:34:51;16.03;;;10.20;;
16766;SDS011;8501;49.926;8.404;2024-03-06T07:37:17;17.70;;;11.00;;
16766;SDS011;8501;49.926;8.404;2024-03-06T07:39:42;16.20;;;10.73;;
16766;SDS011;8501;49.926;8.404;2024-03-06T07:42:08;16.90;;;9.90;;
16766;SDS011;8501;49.926;8.404;2024-03-06T07:44:35;19.07;;;10.63;;
16766;SDS011;8501;49.926;8.404;2024-03-06T07:47:01;21.07;;;13.53;;
16766;SDS011;8501;49.926;8.404;2024-03-06T07:49:26;18.53;;;12.73;;
16766;SDS011;8501;49.926;8.404;2024-03-06T07:51:52;24.90;;;13.40;;
16766;SDS011;8501;49.926;8.404;2024-03-06T07:54:18;20.77;;;12.47;;
16766;SDS011;8501;49.926;8.404;2024-03-06T07:56:44;19.27;;;10.40;;
16766;SDS011;8501;49.926;8.404;2024-03-06T07:59:09;17.13;;;10.80;;
16766;SDS011;8501;49.926;8.404;2024-03-06T08:01:37;16.43;;;9.80;;
16766;SDS011;8501;49.926;8.404;2024-03-06T08:04:03;14.57;;;9.70;;
16766;SDS011;8501;49.926;8.404;2024-03-06T08:06:28;15.47;;;10.30;;
16766;SDS011;8501;49.926;8.404;2024-03-06T08:08:54;16.13;;;11.27;;
16766;SDS011;8501;49.926;8.404;2024-03-06T08:11:20;16.87;;;12.53;;
16766;SDS011;8501;49.926;8.404;2024-03-06T08:13:48;17.67;;;11.73;;
16766;SDS011;8501;49.926;8.404;2024-03-06T08:16:15;17.60;;;12.27;;
16766;SDS011;8501;49.926;8.404;2024-03-06T08:18:42;16.33;;;11.27;;
16766;SDS011;8501;49.926;8.404;2024-03-06T08:21:07;19.17;;;11.83;;
16766;SDS011;8501;49.926;8.404;2024-03-06T08:23:33;17.70;;;11.90;;
16766;SDS011;8501;49.926;8.404;2024-03-06T08:25:59;16.03;;;11.07;;
16766;SDS011;8501;49.926;8.404;2024-03-06T08:28:25;17.73;;;12.07;;
16766;SDS011;8501;49.926;8.404;2024-03-06T08:30:50;16.97;;;11.80;;
16766;SDS011;8501;49.926;8.404;2024-03-06T08:33:17;19.90;;;12.70;;
16766;SDS011;8501;49.926;8.404;2024-03-06T08:35:42;23.37;;;12.80;;
16766;SDS011;8501;49.926;8.404;2024-03-06T08:38:08;20.27;;;12.83;;
16766;SDS011;8501;49.926;8.404;2024-03-06T08:40:34;19.57;;;13.60;;
16766;SDS011;8501;49.926;8.404;2024-03-06T08:42:59;20.17;;;13.93;;
16766;SDS011;8501;49.926;8.404;2024-03-06T08:45:25;22.90;;;15.47;;
16766;SDS011;8501;49.926;8.404;2024-03-06T08:47:50;24.90;;;15.20;;
16766;SDS011;8501;49.926;8.404;2024-03-06T08:50:18;20.30;;;13.50;;
16766;SDS011;8501;49.926;8.404;2024-03-06T08:52:45;18.37;;;11.47;;
16766;SDS011;8501;49.926;8.404;2024-03-06T08:55:10;16.10;;;9.27;;
16766;SDS011;8501;49.926;8.404;2024-03-06T08:57:36;13.47;;;8.57;;
16766;SDS011;8501;49.926;8.404;2024-03-06T09:00:06;16.03;;;9.13;;
16766;SDS011;8501;49.926;8.404;2024-03-06T09:02:36;13.93;;;8.43;;
16766;SDS011;8501;49.926;8.404;2024-03-06T09:05:04;17.30;;;9.00;;
16766;SDS011;8501;49.926;8.404;2024-03-06T09:07:30;11.27;;;8.60;;
16766;SDS011;8501;49.926;8.404;2024-03-06T09:09:56;16.50;;;9.50;;
16766;SDS011;8501;49.926;8.404;2024-03-06T09:12:21;13.67;;;9.37;;
16766;SDS011;8501;49.926;8.404;2024-03-06T09:14:47;16.73;;;9.93;;
16766;SDS011;8501;49.926;8.404;2024-03-06T09:17:13;15.07;;;9.80;;
16766;SDS011;8501;49.926;8.404;2024-03-06T09:19:39;15.27;;;10.77;;
16766;SDS011;8501;49.926;8.404;2024-03-06T09:22:05;16.83;;;10.77;;
16766;SDS011;8501;49.926;8.404;2024-03-06T09:24:31;16.93;;;10.70;;
16766;SDS011;8501;49.926;8.404;2024-03-06T09:26:56;20.07;;;12.07;;
16766;SDS011;8501;49.926;8.404;2024-03-06T09:29:22;19.40;;;12.17;;
16766;SDS011;8501;49.926;8.404;2024-03-06T09:31:48;17.77;;;12.70;;
16766;SDS011;8501;49.926;8.404;2024-03-06T09:34:13;21.37;;;13.47;;
16766;SDS011;8501;49.926;8.404;2024-03-06T09:36:40;21.17;;;12.27;;
16766;SDS011;8501;49.926;8.404;2024-03-06T09:39:09;20.83;;;12.63;;
16766;SDS011;8501;49.926;8.404;2024-03-06T09:41:43;22.00;;;13.00;;
16766;SDS011;8501;49.926;8.404;2024-03-06T09:44:09;24.00;;;13.20;;
16766;SDS011;8501;49.926;8.404;2024-03-06T09:46:35;23.03;;;13.70;;
16766;SDS011;8501;49.926;8.404;2024-03-06T09:49:01;22.00;;;13.60;;
16766;SDS011;8501;49.926;8.404;2024-03-06T09:51:27;24.00;;;14.47;;
16766;SDS011;8501;49.926;8.404;2024-03-06T09:53:53;25.53;;;13.77;;
16766;SDS011;8501;49.926;8.404;2024-03-06T09:56:19;32.57;;;14.73;;
16766;SDS011;8501;49.926;8.404;2024-03-06T09:58:45;29.90;;;14.33;;
16766;SDS011;8501;49.926;8.404;2024-03-06T10:01:12;24.70;;;14.13;;
16766;SDS011;8501;49.926;8.404;2024-03-06T10:03:39;25.93;;;13.70;;
16766;SDS011;8501;49.926;8.404;2024-03-06T10:06:08;23.77;;;14.50;;
16766;SDS011;8501;49.926;8.404;2024-03-06T10:08:34;24.03;;;15.07;;
16766;SDS011;8501;49.926;8.404;2024-03-06T10:11:02;27.43;;;14.93;;
16766;SDS011;8501;49.926;8.404;2024-03-06T10:13:28;25.33;;;15.30;;
16766;SDS011;8501;49.926;8.404;2024-03-06T10:18:29;26.73;;;15.17;;
16766;SDS011;8501;49.926;8.404;2024-03-06T10:20:56;30.63;;;19.47;;
16766;SDS011;8501;49.926;8.404;2024-03-06T10:23:22;32.27;;;17.60;;
16766;SDS011;8501;49.926;8.404;2024-03-06T10:25:48;28.50;;;16.47;;
16766;SDS011;8501;49.926;8.404;2024-03-06T10:28:18;29.80;;;18.43;;
16766;SDS011;8501;49.926;8.404;2024-03-06T10:30:45;28.87;;;17.53;;
16766;SDS011;8501;49.926;8.404;2024-03-06T10:33:12;30.93;;;17.70;;
16766;SDS011;8501;49.926;8.404;2024-03-06T10:35:39;30.90;;;16.67;;
16766;SDS011;8501;49.926;8.404;2024-03-06T10:38:06;35.40;;;18.20;;
16766;SDS011;8501;49.926;8.404;2024-03-06T10:40:36;29.60;;;17.60;;
16766;SDS011;8501;49.926;8.404;2024-03-06T10:43:03;34.57;;;18.27;;
16766;SDS011;8501;49.926;8.404;2024-03-06T10:45:50;27.67;;;17.80;;
16766;SDS011;8501;49.926;8.404;2024-03-06T10:48:19;30.97;;;17.47;;
16766;SDS011;8501;49.926;8.404;2024-03-06T10:50:45;32.80;;;18.93;;
16766;SDS011;8501;49.926;8.404;2024-03-06T10:53:15;29.40;;;18.10;;
16766;SDS011;8501;49.926;8.404;2024-03-06T10:55:45;33.63;;;18.30;;
16766;SDS011;8501;49.926;8.404;2024-03-06T10:58:11;28.67;;;17.73;;
16766;SDS011;8501;49.926;8.404;2024-03-06T11:00:37;31.37;;;18.50;;
16766;SDS011;8501;49.926;8.404;2024-03-06T11:03:07;33.47;;;17.87;;
16766;SDS011;8501;49.926;8.404;2024-03-06T11:05:34;32.77;;;18.00;;
16766;SDS011;8501;49.926;8.404;2024-03-06T11:08:02;32.07;;;18.33;;
16766;SDS011;8501;49.926;8.404;2024-03-06T11:10:34;27.57;;;17.07;;
16766;SDS011;8501;49.926;8.404;2024-03-06T11:13:01;32.90;;;18.37;;
16766;SDS011;8501;49.926;8.404;2024-03-06T11:15:28;31.37;;;18.03;;
16766;SDS011;8501;49.926;8.404;2024-03-06T11:17:54;30.53;;;17.77;;
16766;SDS011;8501;49.926;8.404;2024-03-06T11:20:20;34.60;;;18.33;;
16766;SDS011;8501;49.926;8.404;2024-03-06T11:28:23;30.50;;;17.20;;
16766;SDS011;8501;49.926;8.404;2024-03-06T11:30:57;31.23;;;18.20;;
16766;SDS011;8501;49.926;8.404;2024-03-06T11:39:02;28.17;;;16.23;;
16766;SDS011;8501;49.926;8.404;2024-03-06T11:41:52;27.17;;;16.27;;
16766;SDS011;8501;49.926;8.404;2024-03-06T11:44:18;30.10;;;16.43;;
16766;SDS011;8501;49.926;8.404;2024-03-06T11:49:26;31.03;;;17.30;;
16766;SDS011;8501;49.926;8.404;2024-03-06T11:52:03;27.27;;;16.20;;
16766;SDS011;8501;49.926;8.404;2024-03-06T11:54:30;47.07;;;17.27;;
16766;SDS011;8501;49.926;8.404;2024-03-06T11:56:57;29.10;;;16.70;;
16766;SDS011;8501;49.926;8.404;2024-03-06T11:59:29;28.67;;;16.33;;
16766;SDS011;8501;49.926;8.404;2024-03-06T12:02:03;28.83;;;16.33;;
16766;SDS011;8501;49.926;8.404;2024-03-06T12:04:30;30.07;;;15.63;;
16766;SDS011;8501;49.926;8.404;2024-03-06T12:06:58;28.10;;;14.80;;
16766;SDS011;8501;49.926;8.404;2024-03-06T12:09:30;26.07;;;14.40;;
16766;SDS011;8501;49.926;8.404;2024-03-06T12:11:57;28.00;;;14.90;;
16766;SDS011;8501;49.926;8.404;2024-03-06T12:14:23;28.83;;;14.93;;
16766;SDS011;8501;49.926;8.404;2024-03-06T12:16:55;31.30;;;15.13;;
16766;SDS011;8501;49.926;8.404;2024-03-06T12:19:28;29.43;;;14.93;;
16766;SDS011;8501;49.926;8.404;2024-03-06T12:21:59;26.67;;;14.10;;
16766;SDS011;8501;49.926;8.404;2024-03-06T12:24:25;33.67;;;15.70;;
16766;SDS011;8501;49.926;8.404;2024-03-06T12:26:59;27.37;;;14.70;;
16766;SDS011;8501;49.926;8.404;2024-03-06T12:29:27;28.17;;;14.90;;
16766;SDS011;8501;49.926;8.404;2024-03-06T12:31:54;27.77;;;14.77;;
16766;SDS011;8501;49.926;8.404;2024-03-06T12:34:22;25.50;;;14.23;;
16766;SDS011;8501;49.926;8.404;2024-03-06T12:36:47;25.17;;;13.57;;
16766;SDS011;8501;49.926;8.404;2024-03-06T12:39:14;27.40;;;14.10;;
16766;SDS011;8501;49.926;8.404;2024-03-06T12:41:43;28.57;;;14.53;;
16766;SDS011;8501;49.926;8.404;2024-03-06T12:44:08;24.03;;;13.67;;
16766;SDS011;8501;49.926;8.404;2024-03-06T12:46:34;23.53;;;13.37;;
16766;SDS011;8501;49.926;8.404;2024-03-06T12:49:00;23.73;;;13.37;;
16766;SDS011;8501;49.926;8.404;2024-03-06T12:51:25;25.90;;;14.37;;
16766;SDS011;8501;49.926;8.404;2024-03-06T12:53:51;25.13;;;14.00;;
16766;SDS011;8501;49.926;8.404;2024-03-06T12:56:17;22.90;;;13.10;;
16766;SDS011;8501;49.926;8.404;2024-03-06T12:58:44;21.43;;;12.73;;
16766;SDS011;8501;49.926;8.404;2024-03-06T13:01:09;25.33;;;12.83;;
16766;SDS011;8501;49.926;8.404;2024-03-06T13:03:38;22.27;;;12.17;;
16766;SDS011;8501;49.926;8.404;2024-03-06T13:06:03;23.53;;;13.73;;
16766;SDS011;8501;49.926;8.404;2024-03-06T13:08:32;25.13;;;13.20;;
16766;SDS011;8501;49.926;8.404;2024-03-06T13:10:58;22.00;;;12.93;;
16766;SDS011;8501;49.926;8.404;2024-03-06T13:13:24;26.47;;;13.67;;
16766;SDS011;8501;49.926;8.404;2024-03-06T13:15:50;25.67;;;14.03;;
16766;SDS011;8501;49.926;8.404;2024-03-06T13:18:16;23.07;;;12.93;;
16766;SDS011;8501;49.926;8.404;2024-03-06T13:20:42;24.87;;;13.00;;
16766;SDS011;8501;49.926;8.404;2024-03-06T13:23:09;22.80;;;12.90;;
16766;SDS011;8501;49.926;8.404;2024-03-06T13:25:34;27.83;;;14.87;;
16766;SDS011;8501;49.926;8.404;2024-03-06T13:28:00;23.83;;;12.80;;
16766;SDS011;8501;49.926;8.404;2024-03-06T13:30:26;22.90;;;12.77;;
16766;SDS011;8501;49.926;8.404;2024-03-06T13:32:52;24.27;;;12.33;;
16766;SDS011;8501;49.926;8.404;2024-03-06T13:35:19;23.70;;;12.70;;
16766;SDS011;8501;49.926;8.404;2024-03-06T13:37:44;21.53;;;12.57;;
16766;SDS011;8501;49.926;8.404;2024-03-06T13:40:11;23.33;;;13.53;;
16766;SDS011;8501;49.926;8.404;2024-03-06T13:42:38;23.53;;;13.30;;
16766;SDS011;8501;49.926;8.404;2024-03-06T13:45:05;21.00;;;12.00;;
16766;SDS011;8501;49.926;8.404;2024-03-06T13:47:36;21.20;;;11.23;;
16766;SDS011;8501;49.926;8.404;2024-03-06T13:50:03;22.77;;;12.70;;
16766;SDS011;8501;49.926;8.404;2024-03-06T13:52:31;20.67;;;12.10;;
16766;SDS011;8501;49.926;8.404;2024-03-06T13:54:57;22.00;;;12.17;;
16766;SDS011;8501;49.926;8.404;2024-03-06T13:57:22;23.67;;;12.23;;
16766;SDS011;8501;49.926;8.404;2024-03-06T13:59:48;22.83;;;12.63;;
16766;SDS011;8501;49.926;8.404;2024-03-06T14:02:15;25.20;;;13.63;;
16766;SDS011;8501;49.926;8.404;2024-03-06T14:04:41;22.63;;;13.27;;
16766;SDS011;8501;49.926;8.404;2024-03-06T14:07:06;27.30;;;13.57;;
16766;SDS011;8501;49.926;8.404;2024-03-06T14:09:32;26.73;;;13.97;;
16766;SDS011;8501;49.926;8.404;2024-03-06T14:11:57;27.77;;;14.37;;
16766;SDS011;8501;49.926;8.404;2024-03-06T14:14:23;25.97;;;14.20;;
16766;SDS011;8501;49.926;8.404;2024-03-06T14:16:49;27.30;;;14.37;;
16766;SDS011;8501;49.926;8.404;2024-03-06T14:19:14;27.13;;;14.40;;
16766;SDS011;8501;49.926;8.404;2024-03-06T14:21:40;25.57;;;14.13;;
16766;SDS011;8501;49.926;8.404;2024-03-06T14:24:05;29.43;;;14.57;;
16766;SDS011;8501;49.926;8.404;2024-03-06T14:26:32;25.20;;;13.53;;
16766;SDS011;8501;49.926;8.404;2024-03-06T14:28:58;24.90;;;14.07;;
16766;SDS011;8501;49.926;8.404;2024-03-06T14:31:24;25.10;;;13.13;;
16766;SDS011;8501;49.926;8.404;2024-03-06T14:33:50;23.87;;;13.43;;
16766;SDS011;8501;49.926;8.404;2024-03-06T14:36:17;27.30;;;14.53;;
16766;SDS011;8501;49.926;8.404;2024-03-06T14:38:42;27.33;;;13.67;;
16766;SDS011;8501;49.926;8.404;2024-03-06T14:41:09;24.20;;;12.87;;
16766;SDS011;8501;49.926;8.404;2024-03-06T14:43:35;24.67;;;12.97;;
16766;SDS011;8501;49.926;8.404;2024-03-06T14:46:03;27.27;;;13.60;;
16766;SDS011;8501;49.926;8.404;2024-03-06T14:48:33;25.13;;;12.30;;
16766;SDS011;8501;49.926;8.404;2024-03-06T14:50:59;23.40;;;11.90;;
16766;SDS011;8501;49.926;8.404;2024-03-06T14:53:27;23.33;;;12.40;;
16766;SDS011;8501;49.926;8.404;2024-03-06T14:55:54;23.60;;;12.47;;